sensor_id;sensor_type;location;lat;lon;timestamp;temperature;humidity
21508;DHT22;10915;54.352;9.074;2023-05-24T00:00:41;11.40;99.90
21508;DHT22;10915;54.352;9.074;2023-05-24T00:03:07;11.40;99.90
21508;DHT22;10915;54.352;9.074;2023-05-24T00:05:33;11.40;99.90
21508;DHT22;10915;54.352;9.074;2023-05-24T00:08:02;11.40;99.90
21508;DHT22;10915;54.352;9.074;2023-05-24T00:10:28;11.40;99.90
21508;DHT22;10915;54.352;9.074;2023-05-24T00:12:54;11.40;99.90
21508;DHT22;10915;54.352;9.074;2023-05-24T00:15:20;11.30;99.90
21508;DHT22;10915;54.352;9.074;2023-05-24T00:17:45;11.40;99.90
21508;DHT22;10915;54.352;9.074;2023-05-24T00:20:11;11.40;99.90
21508;DHT22;10915;54.352;9.074;2023-05-24T00:22:38;11.30;99.90
21508;DHT22;10915;54.352;9.074;2023-05-24T00:25:04;11.30;99.90
21508;DHT22;10915;54.352;9.074;2023-05-24T00:27:30;11.30;99.90
21508;DHT22;10915;54.352;9.074;2023-05-24T00:29:57;11.30;99.90
21508;DHT22;10915;54.352;9.074;2023-05-24T00:32:22;11.30;99.90
21508;DHT22;10915;54.352;9.074;2023-05-24T00:34:48;11.30;99.90
21508;DHT22;10915;54.352;9.074;2023-05-24T00:37:14;11.30;99.90
21508;DHT22;10915;54.352;9.074;2023-05-24T00:39:39;11.40;99.90
21508;DHT22;10915;54.352;9.074;2023-05-24T00:42:06;11.40;99.90
21508;DHT22;10915;54.352;9.074;2023-05-24T00:44:31;11.30;99.90
21508;DHT22;10915;54.352;9.074;2023-05-24T00:46:57;11.30;99.90
21508;DHT22;10915;54.352;9.074;2023-05-24T00:49:24;11.30;99.90
21508;DHT22;10915;54.352;9.074;2023-05-24T00:51:51;11.40;99.90
21508;DHT22;10915;54.352;9.074;2023-05-24T00:54:17;11.40;99.90
21508;DHT22;10915;54.352;9.074;2023-05-24T00:56:43;11.30;99.90
21508;DHT22;10915;54.352;9.074;2023-05-24T00:59:09;11.40;99.90
21508;DHT22;10915;54.352;9.074;2023-05-24T01:01:35;11.40;99.90
21508;DHT22;10915;54.352;9.074;2023-05-24T01:04:01;11.30;99.90
21508;DHT22;10915;54.352;9.074;2023-05-24T01:06:27;11.30;99.90
21508;DHT22;10915;54.352;9.074;2023-05-24T01:09:16;11.40;99.90
21508;DHT22;10915;54.352;9.074;2023-05-24T01:14:28;11.30;99.90
21508;DHT22;10915;54.352;9.074;2023-05-24T01:17:05;11.30;99.90
21508;DHT22;10915;54.352;9.074;2023-05-24T01:19:39;11.40;99.90
21508;DHT22;10915;54.352;9.074;2023-05-24T01:27:54;11.40;99.90
21508;DHT22;10915;54.352;9.074;2023-05-24T01:30:20;11.40;99.90
21508;DHT22;10915;54.352;9.074;2023-05-24T01:32:47;11.40;99.90
21508;DHT22;10915;54.352;9.074;2023-05-24T01:35:12;11.40;99.90
21508;DHT22;10915;54.352;9.074;2023-05-24T01:37:38;11.40;99.90
21508;DHT22;10915;54.352;9.074;2023-05-24T01:40:04;11.40;99.90
21508;DHT22;10915;54.352;9.074;2023-05-24T01:42:46;11.40;99.90
21508;DHT22;10915;54.352;9.074;2023-05-24T01:45:24;11.50;99.90
21508;DHT22;10915;54.352;9.074;2023-05-24T01:48:48;11.50;99.90
21508;DHT22;10915;54.352;9.074;2023-05-24T01:51:05;11.50;99.90
21508;DHT22;10915;54.352;9.074;2023-05-24T01:53:40;11.40;99.90
21508;DHT22;10915;54.352;9.074;2023-05-24T01:56:06;11.40;99.90
21508;DHT22;10915;54.352;9.074;2023-05-24T01:58:35;11.50;99.90
21508;DHT22;10915;54.352;9.074;2023-05-24T02:01:02;11.50;99.90
21508;DHT22;10915;54.352;9.074;2023-05-24T02:03:27;11.50;99.90
21508;DHT22;10915;54.352;9.074;2023-05-24T02:05:53;11.40;99.90
21508;DHT22;10915;54.352;9.074;2023-05-24T02:08:19;11.50;99.90
21508;DHT22;10915;54.352;9.074;2023-05-24T02:10:45;11.50;99.90
21508;DHT22;10915;54.352;9.074;2023-05-24T02:13:11;11.50;99.90
21508;DHT22;10915;54.352;9.074;2023-05-24T02:15:36;11.50;99.90
21508;DHT22;10915;54.352;9.074;2023-05-24T02:18:02;11.60;99.90
21508;DHT22;10915;54.352;9.074;2023-05-24T02:20:28;11.50;99.90
21508;DHT22;10915;54.352;9.074;2023-05-24T02:22:55;11.60;99.90
21508;DHT22;10915;54.352;9.074;2023-05-24T02:25:21;11.60;99.90
21508;DHT22;10915;54.352;9.074;2023-05-24T02:27:47;11.60;99.90
21508;DHT22;10915;54.352;9.074;2023-05-24T02:30:13;11.60;99.90
21508;DHT22;10915;54.352;9.074;2023-05-24T02:32:38;11.60;99.90
21508;DHT22;10915;54.352;9.074;2023-05-24T02:35:04;11.60;99.90
21508;DHT22;10915;54.352;9.074;2023-05-24T02:37:30;11.60;99.90
21508;DHT22;10915;54.352;9.074;2023-05-24T02:39:56;11.50;99.90
21508;DHT22;10915;54.352;9.074;2023-05-24T02:42:21;11.60;99.90
21508;DHT22;10915;54.352;9.074;2023-05-24T02:44:47;11.50;99.90
21508;DHT22;10915;54.352;9.074;2023-05-24T02:47:14;11.50;99.90
21508;DHT22;10915;54.352;9.074;2023-05-24T02:49:40;11.50;99.90
21508;DHT22;10915;54.352;9.074;2023-05-24T02:52:05;11.60;99.90
21508;DHT22;10915;54.352;9.074;2023-05-24T02:54:31;11.60;99.90
21508;DHT22;10915;54.352;9.074;2023-05-24T02:56:57;11.60;99.90
21508;DHT22;10915;54.352;9.074;2023-05-24T02:59:23;11.60;99.90
21508;DHT22;10915;54.352;9.074;2023-05-24T03:01:48;11.60;99.90
21508;DHT22;10915;54.352;9.074;2023-05-24T03:04:14;11.70;99.90
21508;DHT22;10915;54.352;9.074;2023-05-24T03:06:39;11.70;99.90
21508;DHT22;10915;54.352;9.074;2023-05-24T03:09:05;11.70;99.90
21508;DHT22;10915;54.352;9.074;2023-05-24T03:11:31;11.70;99.90
21508;DHT22;10915;54.352;9.074;2023-05-24T03:13:57;11.70;99.90
21508;DHT22;10915;54.352;9.074;2023-05-24T03:16:22;11.70;99.90
21508;DHT22;10915;54.352;9.074;2023-05-24T03:18:51;11.70;99.90
21508;DHT22;10915;54.352;9.074;2023-05-24T03:21:19;11.80;99.90
21508;DHT22;10915;54.352;9.074;2023-05-24T03:23:45;11.80;99.90
21508;DHT22;10915;54.352;9.074;2023-05-24T03:26:11;11.80;99.90
21508;DHT22;10915;54.352;9.074;2023-05-24T03:28:39;11.80;99.90
21508;DHT22;10915;54.352;9.074;2023-05-24T03:31:06;11.80;99.90
21508;DHT22;10915;54.352;9.074;2023-05-24T03:33:32;11.80;99.90
21508;DHT22;10915;54.352;9.074;2023-05-24T03:35:58;11.70;99.90
21508;DHT22;10915;54.352;9.074;2023-05-24T03:38:23;11.70;99.90
21508;DHT22;10915;54.352;9.074;2023-05-24T03:40:49;11.70;99.90
21508;DHT22;10915;54.352;9.074;2023-05-24T03:43:15;11.80;99.90
21508;DHT22;10915;54.352;9.074;2023-05-24T03:45:41;11.80;99.90
21508;DHT22;10915;54.352;9.074;2023-05-24T03:48:07;11.80;99.90
21508;DHT22;10915;54.352;9.074;2023-05-24T03:50:33;11.80;99.90
21508;DHT22;10915;54.352;9.074;2023-05-24T03:52:58;11.80;99.90
21508;DHT22;10915;54.352;9.074;2023-05-24T03:55:24;11.80;99.90
21508;DHT22;10915;54.352;9.074;2023-05-24T03:57:49;11.80;99.90
21508;DHT22;10915;54.352;9.074;2023-05-24T04:00:15;11.80;99.90
21508;DHT22;10915;54.352;9.074;2023-05-24T04:02:41;11.80;99.90
21508;DHT22;10915;54.352;9.074;2023-05-24T04:05:07;11.70;99.90
21508;DHT22;10915;54.352;9.074;2023-05-24T04:07:35;11.70;99.90
21508;DHT22;10915;54.352;9.074;2023-05-24T04:10:02;11.70;99.90
21508;DHT22;10915;54.352;9.074;2023-05-24T04:12:28;11.70;99.90
21508;DHT22;10915;54.352;9.074;2023-05-24T04:14:53;11.80;99.90
21508;DHT22;10915;54.352;9.074;2023-05-24T04:17:19;11.80;99.90
21508;DHT22;10915;54.352;9.074;2023-05-24T04:19:49;11.90;99.90
21508;DHT22;10915;54.352;9.074;2023-05-24T04:22:15;11.90;99.90
21508;DHT22;10915;54.352;9.074;2023-05-24T04:24:41;11.90;99.90
21508;DHT22;10915;54.352;9.074;2023-05-24T04:27:08;12.00;99.90
21508;DHT22;10915;54.352;9.074;2023-05-24T04:29:34;12.10;99.90
21508;DHT22;10915;54.352;9.074;2023-05-24T04:31:59;12.20;99.90
21508;DHT22;10915;54.352;9.074;2023-05-24T04:34:25;12.30;99.90
21508;DHT22;10915;54.352;9.074;2023-05-24T04:36:54;12.30;99.90
21508;DHT22;10915;54.352;9.074;2023-05-24T04:39:20;12.30;99.90
21508;DHT22;10915;54.352;9.074;2023-05-24T04:41:46;12.20;99.90
21508;DHT22;10915;54.352;9.074;2023-05-24T04:44:15;12.10;99.90
21508;DHT22;10915;54.352;9.074;2023-05-24T04:46:41;12.20;99.90
21508;DHT22;10915;54.352;9.074;2023-05-24T04:49:06;12.00;99.90
21508;DHT22;10915;54.352;9.074;2023-05-24T04:51:33;12.10;99.90
21508;DHT22;10915;54.352;9.074;2023-05-24T04:53:58;12.00;99.90
21508;DHT22;10915;54.352;9.074;2023-05-24T04:56:25;11.90;99.90
21508;DHT22;10915;54.352;9.074;2023-05-24T04:58:51;12.00;99.90
21508;DHT22;10915;54.352;9.074;2023-05-24T05:01:17;12.00;99.90
21508;DHT22;10915;54.352;9.074;2023-05-24T05:03:43;12.10;99.90
21508;DHT22;10915;54.352;9.074;2023-05-24T05:06:10;11.90;99.90
21508;DHT22;10915;54.352;9.074;2023-05-24T05:08:36;12.00;99.90
21508;DHT22;10915;54.352;9.074;2023-05-24T05:11:02;12.10;99.90
21508;DHT22;10915;54.352;9.074;2023-05-24T05:13:27;12.10;99.90
21508;DHT22;10915;54.352;9.074;2023-05-24T05:15:53;12.10;99.90
21508;DHT22;10915;54.352;9.074;2023-05-24T05:18:19;12.10;99.90
21508;DHT22;10915;54.352;9.074;2023-05-24T05:20:45;12.10;99.90
21508;DHT22;10915;54.352;9.074;2023-05-24T05:23:11;12.20;99.90
21508;DHT22;10915;54.352;9.074;2023-05-24T05:25:36;12.20;99.90
21508;DHT22;10915;54.352;9.074;2023-05-24T05:28:02;12.30;99.90
21508;DHT22;10915;54.352;9.074;2023-05-24T05:30:27;12.30;99.90
21508;DHT22;10915;54.352;9.074;2023-05-24T05:32:53;12.40;99.90
21508;DHT22;10915;54.352;9.074;2023-05-24T05:35:19;12.30;99.90
21508;DHT22;10915;54.352;9.074;2023-05-24T05:37:44;12.20;99.90
21508;DHT22;10915;54.352;9.074;2023-05-24T05:40:10;12.30;99.90
21508;DHT22;10915;54.352;9.074;2023-05-24T05:42:36;12.20;99.90
21508;DHT22;10915;54.352;9.074;2023-05-24T05:45:02;12.30;99.90
21508;DHT22;10915;54.352;9.074;2023-05-24T05:47:27;12.30;99.90
21508;DHT22;10915;54.352;9.074;2023-05-24T05:49:53;12.40;99.90
21508;DHT22;10915;54.352;9.074;2023-05-24T05:52:19;12.30;99.90
21508;DHT22;10915;54.352;9.074;2023-05-24T05:54:45;12.20;99.90
21508;DHT22;10915;54.352;9.074;2023-05-24T05:57:11;12.10;99.90
21508;DHT22;10915;54.352;9.074;2023-05-24T05:59:37;12.10;99.90
21508;DHT22;10915;54.352;9.074;2023-05-24T06:02:03;12.10;99.90
21508;DHT22;10915;54.352;9.074;2023-05-24T06:04:30;12.20;99.90
21508;DHT22;10915;54.352;9.074;2023-05-24T06:06:56;12.30;99.90
21508;DHT22;10915;54.352;9.074;2023-05-24T06:09:21;12.10;99.90
21508;DHT22;10915;54.352;9.074;2023-05-24T06:11:47;12.20;99.90
21508;DHT22;10915;54.352;9.074;2023-05-24T06:14:13;12.10;99.90
21508;DHT22;10915;54.352;9.074;2023-05-24T06:16:44;11.90;99.90
21508;DHT22;10915;54.352;9.074;2023-05-24T06:19:11;12.00;99.90
21508;DHT22;10915;54.352;9.074;2023-05-24T06:21:37;12.20;99.90
21508;DHT22;10915;54.352;9.074;2023-05-24T06:24:03;12.40;99.90
21508;DHT22;10915;54.352;9.074;2023-05-24T06:26:29;12.40;99.90
21508;DHT22;10915;54.352;9.074;2023-05-24T06:28:55;12.40;99.90
21508;DHT22;10915;54.352;9.074;2023-05-24T06:31:20;12.30;99.90
21508;DHT22;10915;54.352;9.074;2023-05-24T06:33:46;12.60;99.90
21508;DHT22;10915;54.352;9.074;2023-05-24T06:36:12;12.70;99.90
21508;DHT22;10915;54.352;9.074;2023-05-24T06:38:38;12.90;99.90
21508;DHT22;10915;54.352;9.074;2023-05-24T06:41:03;13.10;99.90
21508;DHT22;10915;54.352;9.074;2023-05-24T06:43:29;13.30;99.90
21508;DHT22;10915;54.352;9.074;2023-05-24T06:45:55;13.40;99.90
21508;DHT22;10915;54.352;9.074;2023-05-24T06:48:20;13.40;99.90
21508;DHT22;10915;54.352;9.074;2023-05-24T06:50:46;13.30;99.90
21508;DHT22;10915;54.352;9.074;2023-05-24T06:53:12;12.80;99.90
21508;DHT22;10915;54.352;9.074;2023-05-24T06:55:37;12.70;99.90
21508;DHT22;10915;54.352;9.074;2023-05-24T06:58:03;13.00;99.90
21508;DHT22;10915;54.352;9.074;2023-05-24T07:00:31;13.30;99.90
21508;DHT22;10915;54.352;9.074;2023-05-24T07:02:56;13.70;99.90
21508;DHT22;10915;54.352;9.074;2023-05-24T07:05:22;14.00;99.90
21508;DHT22;10915;54.352;9.074;2023-05-24T07:07:48;14.10;99.90
21508;DHT22;10915;54.352;9.074;2023-05-24T07:10:13;14.20;99.90
21508;DHT22;10915;54.352;9.074;2023-05-24T07:12:39;14.20;99.90
21508;DHT22;10915;54.352;9.074;2023-05-24T07:15:05;14.20;99.90
21508;DHT22;10915;54.352;9.074;2023-05-24T07:17:33;14.20;99.90
21508;DHT22;10915;54.352;9.074;2023-05-24T07:19:59;14.30;99.90
21508;DHT22;10915;54.352;9.074;2023-05-24T07:22:25;14.20;99.90
21508;DHT22;10915;54.352;9.074;2023-05-24T07:24:53;14.30;99.90
21508;DHT22;10915;54.352;9.074;2023-05-24T07:27:19;14.30;99.90
21508;DHT22;10915;54.352;9.074;2023-05-24T07:29:45;14.40;99.90
21508;DHT22;10915;54.352;9.074;2023-05-24T07:32:11;14.40;99.90
21508;DHT22;10915;54.352;9.074;2023-05-24T07:34:36;14.50;99.90
21508;DHT22;10915;54.352;9.074;2023-05-24T07:37:04;14.60;99.90
21508;DHT22;10915;54.352;9.074;2023-05-24T07:39:29;14.70;99.90
21508;DHT22;10915;54.352;9.074;2023-05-24T07:41:55;14.70;99.90
21508;DHT22;10915;54.352;9.074;2023-05-24T07:44:21;14.80;99.90
21508;DHT22;10915;54.352;9.074;2023-05-24T07:46:48;14.70;99.90
21508;DHT22;10915;54.352;9.074;2023-05-24T07:49:14;14.60;99.90
21508;DHT22;10915;54.352;9.074;2023-05-24T07:51:39;14.60;99.90
21508;DHT22;10915;54.352;9.074;2023-05-24T07:54:05;14.30;99.90
21508;DHT22;10915;54.352;9.074;2023-05-24T07:56:31;14.20;99.90
21508;DHT22;10915;54.352;9.074;2023-05-24T07:58:57;14.20;99.90
21508;DHT22;10915;54.352;9.074;2023-05-24T08:01:29;14.20;99.90
21508;DHT22;10915;54.352;9.074;2023-05-24T08:03:55;14.10;99.90
21508;DHT22;10915;54.352;9.074;2023-05-24T08:06:21;14.20;99.90
21508;DHT22;10915;54.352;9.074;2023-05-24T08:08:47;14.20;99.90
21508;DHT22;10915;54.352;9.074;2023-05-24T08:11:12;14.30;99.90
21508;DHT22;10915;54.352;9.074;2023-05-24T08:13:38;14.50;99.90
21508;DHT22;10915;54.352;9.074;2023-05-24T08:16:04;14.60;99.90
21508;DHT22;10915;54.352;9.074;2023-05-24T08:18:29;14.70;99.90
21508;DHT22;10915;54.352;9.074;2023-05-24T08:20:55;14.90;99.90
21508;DHT22;10915;54.352;9.074;2023-05-24T08:23:21;15.10;99.90
21508;DHT22;10915;54.352;9.074;2023-05-24T08:25:47;15.10;99.90
21508;DHT22;10915;54.352;9.074;2023-05-24T08:28:13;15.20;99.90
21508;DHT22;10915;54.352;9.074;2023-05-24T08:30:38;15.20;99.90
21508;DHT22;10915;54.352;9.074;2023-05-24T08:33:04;15.10;99.90
21508;DHT22;10915;54.352;9.074;2023-05-24T08:35:30;15.10;99.90
21508;DHT22;10915;54.352;9.074;2023-05-24T08:37:55;14.90;99.90
21508;DHT22;10915;54.352;9.074;2023-05-24T08:40:21;15.00;99.90
21508;DHT22;10915;54.352;9.074;2023-05-24T08:42:49;15.10;99.90
21508;DHT22;10915;54.352;9.074;2023-05-24T08:45:17;15.00;99.90
21508;DHT22;10915;54.352;9.074;2023-05-24T08:47:43;14.80;99.90
21508;DHT22;10915;54.352;9.074;2023-05-24T08:50:11;14.50;99.90
21508;DHT22;10915;54.352;9.074;2023-05-24T08:52:38;14.30;99.90
21508;DHT22;10915;54.352;9.074;2023-05-24T08:55:04;14.20;99.90
21508;DHT22;10915;54.352;9.074;2023-05-24T08:57:31;14.00;99.90
21508;DHT22;10915;54.352;9.074;2023-05-24T08:59:59;13.80;99.90
21508;DHT22;10915;54.352;9.074;2023-05-24T09:02:25;14.00;99.90
21508;DHT22;10915;54.352;9.074;2023-05-24T09:04:51;14.20;99.90
21508;DHT22;10915;54.352;9.074;2023-05-24T09:07:20;14.20;99.90
21508;DHT22;10915;54.352;9.074;2023-05-24T09:10:00;14.30;99.90
21508;DHT22;10915;54.352;9.074;2023-05-24T09:12:30;14.50;99.90
21508;DHT22;10915;54.352;9.074;2023-05-24T09:14:57;14.60;99.90
21508;DHT22;10915;54.352;9.074;2023-05-24T09:17:24;14.70;99.90
21508;DHT22;10915;54.352;9.074;2023-05-24T09:19:51;14.80;99.90
21508;DHT22;10915;54.352;9.074;2023-05-24T09:22:24;14.90;99.90
21508;DHT22;10915;54.352;9.074;2023-05-24T09:24:52;15.10;99.90
21508;DHT22;10915;54.352;9.074;2023-05-24T09:27:18;15.20;99.90
21508;DHT22;10915;54.352;9.074;2023-05-24T09:29:47;15.50;99.90
21508;DHT22;10915;54.352;9.074;2023-05-24T09:32:14;15.60;99.90
21508;DHT22;10915;54.352;9.074;2023-05-24T09:34:44;15.70;99.90
21508;DHT22;10915;54.352;9.074;2023-05-24T09:37:20;15.70;99.90
21508;DHT22;10915;54.352;9.074;2023-05-24T09:39:48;15.80;99.90
21508;DHT22;10915;54.352;9.074;2023-05-24T09:42:23;15.90;99.90
21508;DHT22;10915;54.352;9.074;2023-05-24T09:45:03;16.00;99.90
21508;DHT22;10915;54.352;9.074;2023-05-24T09:47:33;16.00;99.90
21508;DHT22;10915;54.352;9.074;2023-05-24T09:50:03;16.10;99.90
21508;DHT22;10915;54.352;9.074;2023-05-24T09:52:29;16.10;99.90
21508;DHT22;10915;54.352;9.074;2023-05-24T09:54:55;16.20;99.90
21508;DHT22;10915;54.352;9.074;2023-05-24T09:57:21;16.10;99.90
21508;DHT22;10915;54.352;9.074;2023-05-24T09:59:48;16.10;99.90
21508;DHT22;10915;54.352;9.074;2023-05-24T10:02:14;16.00;99.90
21508;DHT22;10915;54.352;9.074;2023-05-24T10:04:42;16.00;99.90
21508;DHT22;10915;54.352;9.074;2023-05-24T10:07:09;16.10;99.90
21508;DHT22;10915;54.352;9.074;2023-05-24T10:09:37;16.10;99.90
21508;DHT22;10915;54.352;9.074;2023-05-24T10:12:06;16.20;99.90
21508;DHT22;10915;54.352;9.074;2023-05-24T10:14:35;16.20;99.90
21508;DHT22;10915;54.352;9.074;2023-05-24T10:17:05;16.30;99.90
21508;DHT22;10915;54.352;9.074;2023-05-24T10:19:32;16.20;99.90
21508;DHT22;10915;54.352;9.074;2023-05-24T10:21:59;16.20;99.90
21508;DHT22;10915;54.352;9.074;2023-05-24T10:24:34;16.20;99.90
21508;DHT22;10915;54.352;9.074;2023-05-24T10:27:05;16.20;99.90
21508;DHT22;10915;54.352;9.074;2023-05-24T10:32:20;16.20;99.90
21508;DHT22;10915;54.352;9.074;2023-05-24T10:34:48;16.10;99.90
21508;DHT22;10915;54.352;9.074;2023-05-24T10:37:16;16.10;99.90
21508;DHT22;10915;54.352;9.074;2023-05-24T10:39:42;16.00;99.90
21508;DHT22;10915;54.352;9.074;2023-05-24T10:42:08;15.90;99.90
21508;DHT22;10915;54.352;9.074;2023-05-24T10:44:34;15.80;99.90
21508;DHT22;10915;54.352;9.074;2023-05-24T10:49:35;15.70;99.90
21508;DHT22;10915;54.352;9.074;2023-05-24T10:52:09;15.80;99.90
21508;DHT22;10915;54.352;9.074;2023-05-24T10:54:34;15.90;99.90
21508;DHT22;10915;54.352;9.074;2023-05-24T10:57:02;16.00;99.90
21508;DHT22;10915;54.352;9.074;2023-05-24T10:59:36;16.00;99.90
21508;DHT22;10915;54.352;9.074;2023-05-24T11:02:05;16.10;99.90
21508;DHT22;10915;54.352;9.074;2023-05-24T11:04:39;15.90;99.90
21508;DHT22;10915;54.352;9.074;2023-05-24T11:07:06;16.00;99.90
21508;DHT22;10915;54.352;9.074;2023-05-24T11:09:37;16.10;99.90
21508;DHT22;10915;54.352;9.074;2023-05-24T11:12:16;16.20;99.90
21508;DHT22;10915;54.352;9.074;2023-05-24T11:14:47;16.50;99.90
21508;DHT22;10915;54.352;9.074;2023-05-24T11:17:14;16.60;99.90
21508;DHT22;10915;54.352;9.074;2023-05-24T11:19:58;16.70;99.90
21508;DHT22;10915;54.352;9.074;2023-05-24T11:22:24;16.80;99.90
21508;DHT22;10915;54.352;9.074;2023-05-24T11:24:51;16.80;99.90
21508;DHT22;10915;54.352;9.074;2023-05-24T11:27:17;16.80;99.90
21508;DHT22;10915;54.352;9.074;2023-05-24T11:29:45;17.00;99.90
21508;DHT22;10915;54.352;9.074;2023-05-24T11:32:16;17.10;99.90
21508;DHT22;10915;54.352;9.074;2023-05-24T11:34:42;17.20;99.90
21508;DHT22;10915;54.352;9.074;2023-05-24T11:37:10;17.40;99.90
21508;DHT22;10915;54.352;9.074;2023-05-24T11:39:36;17.60;99.90
21508;DHT22;10915;54.352;9.074;2023-05-24T11:42:07;17.70;99.90
21508;DHT22;10915;54.352;9.074;2023-05-24T11:44:33;17.90;99.90
21508;DHT22;10915;54.352;9.074;2023-05-24T11:47:01;18.20;99.90
21508;DHT22;10915;54.352;9.074;2023-05-24T11:49:27;18.40;99.90
21508;DHT22;10915;54.352;9.074;2023-05-24T11:51:57;18.60;99.90
21508;DHT22;10915;54.352;9.074;2023-05-24T11:54:26;18.80;99.90
21508;DHT22;10915;54.352;9.074;2023-05-24T11:56:53;18.80;99.90
21508;DHT22;10915;54.352;9.074;2023-05-24T11:59:24;18.60;99.90
21508;DHT22;10915;54.352;9.074;2023-05-24T12:02:01;18.50;99.90
21508;DHT22;10915;54.352;9.074;2023-05-24T12:04:28;18.50;99.90
21508;DHT22;10915;54.352;9.074;2023-05-24T12:06:54;18.40;99.90
21508;DHT22;10915;54.352;9.074;2023-05-24T12:09:20;18.40;99.90
21508;DHT22;10915;54.352;9.074;2023-05-24T12:11:47;18.30;99.90
21508;DHT22;10915;54.352;9.074;2023-05-24T12:14:16;18.20;99.90
21508;DHT22;10915;54.352;9.074;2023-05-24T12:16:43;18.10;99.90
21508;DHT22;10915;54.352;9.074;2023-05-24T12:19:19;18.10;99.90
21508;DHT22;10915;54.352;9.074;2023-05-24T12:21:46;18.00;99.90
21508;DHT22;10915;54.352;9.074;2023-05-24T12:24:16;18.00;99.90
21508;DHT22;10915;54.352;9.074;2023-05-24T12:26:48;18.00;99.90
21508;DHT22;10915;54.352;9.074;2023-05-24T12:29:15;18.10;99.90
21508;DHT22;10915;54.352;9.074;2023-05-24T12:31:42;18.20;99.90
21508;DHT22;10915;54.352;9.074;2023-05-24T12:34:16;18.30;99.90
21508;DHT22;10915;54.352;9.074;2023-05-24T12:36:42;18.50;99.90
21508;DHT22;10915;54.352;9.074;2023-05-24T12:41:53;18.80;99.90
21508;DHT22;10915;54.352;9.074;2023-05-24T12:44:27;19.00;99.90
21508;DHT22;10915;54.352;9.074;2023-05-24T12:46:54;19.30;99.90
21508;DHT22;10915;54.352;9.074;2023-05-24T12:49:21;19.50;99.90
21508;DHT22;10915;54.352;9.074;2023-05-24T12:51:47;19.90;99.90
21508;DHT22;10915;54.352;9.074;2023-05-24T12:54:13;20.20;99.90
21508;DHT22;10915;54.352;9.074;2023-05-24T12:56:39;20.40;99.90
21508;DHT22;10915;54.352;9.074;2023-05-24T12:59:04;20.60;99.90
21508;DHT22;10915;54.352;9.074;2023-05-24T13:01:30;20.80;99.90
21508;DHT22;10915;54.352;9.074;2023-05-24T13:03:55;20.90;99.90
21508;DHT22;10915;54.352;9.074;2023-05-24T13:06:21;20.90;99.90
21508;DHT22;10915;54.352;9.074;2023-05-24T13:08:47;20.80;99.90
21508;DHT22;10915;54.352;9.074;2023-05-24T13:11:12;20.90;99.90
21508;DHT22;10915;54.352;9.074;2023-05-24T13:13:38;21.00;99.90
21508;DHT22;10915;54.352;9.074;2023-05-24T13:16:04;20.90;99.90
21508;DHT22;10915;54.352;9.074;2023-05-24T13:18:32;20.90;99.90
21508;DHT22;10915;54.352;9.074;2023-05-24T13:20:58;20.90;99.90
21508;DHT22;10915;54.352;9.074;2023-05-24T13:23:25;21.00;99.90
21508;DHT22;10915;54.352;9.074;2023-05-24T13:25:51;21.20;99.90
21508;DHT22;10915;54.352;9.074;2023-05-24T13:28:18;21.30;99.90
21508;DHT22;10915;54.352;9.074;2023-05-24T13:30:44;21.20;99.90
21508;DHT22;10915;54.352;9.074;2023-05-24T13:33:09;21.00;99.90
21508;DHT22;10915;54.352;9.074;2023-05-24T13:35:35;20.90;99.90
21508;DHT22;10915;54.352;9.074;2023-05-24T13:38:00;20.60;99.90
21508;DHT22;10915;54.352;9.074;2023-05-24T13:40:26;20.50;99.90
21508;DHT22;10915;54.352;9.074;2023-05-24T13:42:53;20.50;99.90
21508;DHT22;10915;54.352;9.074;2023-05-24T13:45:19;20.70;99.90
21508;DHT22;10915;54.352;9.074;2023-05-24T13:47:45;20.90;99.90
21508;DHT22;10915;54.352;9.074;2023-05-24T13:50:11;21.30;99.90
21508;DHT22;10915;54.352;9.074;2023-05-24T13:52:36;21.50;99.90
21508;DHT22;10915;54.352;9.074;2023-05-24T13:55:03;21.40;99.90
21508;DHT22;10915;54.352;9.074;2023-05-24T13:57:29;21.40;99.90
21508;DHT22;10915;54.352;9.074;2023-05-24T13:59:55;21.30;99.90
21508;DHT22;10915;54.352;9.074;2023-05-24T14:02:20;21.30;99.90
21508;DHT22;10915;54.352;9.074;2023-05-24T14:04:46;21.30;99.90
21508;DHT22;10915;54.352;9.074;2023-05-24T14:07:12;21.50;99.90
21508;DHT22;10915;54.352;9.074;2023-05-24T14:09:40;21.60;99.90
21508;DHT22;10915;54.352;9.074;2023-05-24T14:12:06;21.70;99.90
21508;DHT22;10915;54.352;9.074;2023-05-24T14:14:33;21.70;99.90
21508;DHT22;10915;54.352;9.074;2023-05-24T14:16:58;21.60;99.90
21508;DHT22;10915;54.352;9.074;2023-05-24T14:19:24;21.60;99.90
21508;DHT22;10915;54.352;9.074;2023-05-24T14:21:50;21.60;99.90
21508;DHT22;10915;54.352;9.074;2023-05-24T14:24:16;21.70;99.90
21508;DHT22;10915;54.352;9.074;2023-05-24T14:26:41;21.70;99.90
21508;DHT22;10915;54.352;9.074;2023-05-24T14:29:08;21.60;99.90
21508;DHT22;10915;54.352;9.074;2023-05-24T14:31:34;21.60;99.90
21508;DHT22;10915;54.352;9.074;2023-05-24T14:34:07;21.60;99.90
21508;DHT22;10915;54.352;9.074;2023-05-24T14:36:33;21.60;99.90
21508;DHT22;10915;54.352;9.074;2023-05-24T14:38:58;21.60;99.90
21508;DHT22;10915;54.352;9.074;2023-05-24T14:41:24;21.70;99.90
21508;DHT22;10915;54.352;9.074;2023-05-24T14:43:50;21.70;99.90
21508;DHT22;10915;54.352;9.074;2023-05-24T14:46:16;21.80;99.90
21508;DHT22;10915;54.352;9.074;2023-05-24T14:48:42;21.80;99.90
21508;DHT22;10915;54.352;9.074;2023-05-24T14:51:07;21.80;99.90
21508;DHT22;10915;54.352;9.074;2023-05-24T14:53:33;21.80;99.90
21508;DHT22;10915;54.352;9.074;2023-05-24T14:55:59;21.70;99.90
21508;DHT22;10915;54.352;9.074;2023-05-24T14:58:24;21.70;99.90
21508;DHT22;10915;54.352;9.074;2023-05-24T15:00:51;21.60;99.90
21508;DHT22;10915;54.352;9.074;2023-05-24T15:03:17;21.50;99.90
21508;DHT22;10915;54.352;9.074;2023-05-24T15:05:43;21.30;99.90
21508;DHT22;10915;54.352;9.074;2023-05-24T15:08:09;21.20;99.90
21508;DHT22;10915;54.352;9.074;2023-05-24T15:10:38;21.20;99.90
21508;DHT22;10915;54.352;9.074;2023-05-24T15:13:03;21.30;99.90
21508;DHT22;10915;54.352;9.074;2023-05-24T15:15:30;21.20;99.90
21508;DHT22;10915;54.352;9.074;2023-05-24T15:17:55;21.10;99.90
21508;DHT22;10915;54.352;9.074;2023-05-24T15:20:24;21.00;99.90
21508;DHT22;10915;54.352;9.074;2023-05-24T15:22:50;20.90;99.90
21508;DHT22;10915;54.352;9.074;2023-05-24T15:25:15;20.80;99.90
21508;DHT22;10915;54.352;9.074;2023-05-24T15:27:41;20.90;99.90
21508;DHT22;10915;54.352;9.074;2023-05-24T15:30:07;20.80;99.90
21508;DHT22;10915;54.352;9.074;2023-05-24T15:32:32;20.80;99.90
21508;DHT22;10915;54.352;9.074;2023-05-24T15:34:58;20.70;99.90
21508;DHT22;10915;54.352;9.074;2023-05-24T15:37:26;20.80;99.90
21508;DHT22;10915;54.352;9.074;2023-05-24T15:39:52;20.70;99.90
21508;DHT22;10915;54.352;9.074;2023-05-24T15:42:18;20.70;99.90
21508;DHT22;10915;54.352;9.074;2023-05-24T15:44:45;20.70;99.90